sensor_id;sensor_type;location;lat;lon;timestamp;temperature;humidity
38854;DHT22;24606;51.992;4.198;2023-02-27T00:04:34;18.30;61.00
38854;DHT22;24606;51.992;4.198;2023-02-27T00:09:36;18.20;61.20
38854;DHT22;24606;51.992;4.198;2023-02-27T00:14:39;18.30;61.20
38854;DHT22;24606;51.992;4.198;2023-02-27T00:19:43;18.20;61.20
38854;DHT22;24606;51.992;4.198;2023-02-27T00:24:45;18.20;61.40
38854;DHT22;24606;51.992;4.198;2023-02-27T00:29:46;18.10;61.40
38854;DHT22;24606;51.992;4.198;2023-02-27T00:34:50;18.20;61.00
38854;DHT22;24606;51.992;4.198;2023-02-27T00:39:52;18.20;61.10
38854;DHT22;24606;51.992;4.198;2023-02-27T00:44:53;18.10;61.10
38854;DHT22;24606;51.992;4.198;2023-02-27T00:49:57;18.10;61.30
38854;DHT22;24606;51.992;4.198;2023-02-27T00:54:58;18.10;61.10
38854;DHT22;24606;51.992;4.198;2023-02-27T01:00:01;18.00;61.20
38854;DHT22;24606;51.992;4.198;2023-02-27T01:05:08;18.00;61.10
38854;DHT22;24606;51.992;4.198;2023-02-27T01:10:11;18.00;61.00
38854;DHT22;24606;51.992;4.198;2023-02-27T01:15:12;18.00;61.30
38854;DHT22;24606;51.992;4.198;2023-02-27T01:20:16;18.00;61.20
38854;DHT22;24606;51.992;4.198;2023-02-27T01:25:18;17.90;61.60
38854;DHT22;24606;51.992;4.198;2023-02-27T01:30:20;17.90;61.70
38854;DHT22;24606;51.992;4.198;2023-02-27T01:35:23;17.80;61.50
38854;DHT22;24606;51.992;4.198;2023-02-27T01:40:25;17.80;61.70
38854;DHT22;24606;51.992;4.198;2023-02-27T01:45:29;17.80;61.50
38854;DHT22;24606;51.992;4.198;2023-02-27T01:50:34;17.80;61.50
38854;DHT22;24606;51.992;4.198;2023-02-27T01:55:38;17.80;61.60
38854;DHT22;24606;51.992;4.198;2023-02-27T02:00:40;17.80;61.60
38854;DHT22;24606;51.992;4.198;2023-02-27T02:05:44;17.70;61.70
38854;DHT22;24606;51.992;4.198;2023-02-27T02:10:47;17.60;61.40
38854;DHT22;24606;51.992;4.198;2023-02-27T02:16:03;17.60;61.60
38854;DHT22;24606;51.992;4.198;2023-02-27T02:21:32;17.60;61.60
38854;DHT22;24606;51.992;4.198;2023-02-27T02:26:52;17.60;61.60
38854;DHT22;24606;51.992;4.198;2023-02-27T02:32:23;17.60;61.30
38854;DHT22;24606;51.992;4.198;2023-02-27T02:43:06;17.60;61.50
38854;DHT22;24606;51.992;4.198;2023-02-27T02:48:13;17.50;61.90
38854;DHT22;24606;51.992;4.198;2023-02-27T02:53:25;17.40;61.50
38854;DHT22;24606;51.992;4.198;2023-02-27T02:58:33;17.40;61.10
38854;DHT22;24606;51.992;4.198;2023-02-27T03:03:40;17.50;61.60
38854;DHT22;24606;51.992;4.198;2023-02-27T03:08:47;17.40;61.60
38854;DHT22;24606;51.992;4.198;2023-02-27T03:13:57;17.40;61.90
38854;DHT22;24606;51.992;4.198;2023-02-27T03:19:04;17.40;61.80
38854;DHT22;24606;51.992;4.198;2023-02-27T03:24:12;17.40;61.50
38854;DHT22;24606;51.992;4.198;2023-02-27T03:29:21;17.30;61.90
38854;DHT22;24606;51.992;4.198;2023-02-27T03:34:28;17.30;61.50
38854;DHT22;24606;51.992;4.198;2023-02-27T03:39:38;17.20;61.80
38854;DHT22;24606;51.992;4.198;2023-02-27T03:44:51;17.20;61.90
38854;DHT22;24606;51.992;4.198;2023-02-27T03:49:55;17.30;61.70
38854;DHT22;24606;51.992;4.198;2023-02-27T03:54:59;17.20;61.80
38854;DHT22;24606;51.992;4.198;2023-02-27T04:00:05;17.20;61.70
38854;DHT22;24606;51.992;4.198;2023-02-27T04:05:08;17.10;62.00
38854;DHT22;24606;51.992;4.198;2023-02-27T04:10:18;17.10;62.10
38854;DHT22;24606;51.992;4.198;2023-02-27T04:15:29;17.10;61.70
38854;DHT22;24606;51.992;4.198;2023-02-27T04:20:38;17.00;61.60
38854;DHT22;24606;51.992;4.198;2023-02-27T04:25:56;17.00;61.90
38854;DHT22;24606;51.992;4.198;2023-02-27T04:31:11;17.00;61.70
38854;DHT22;24606;51.992;4.198;2023-02-27T04:36:20;17.00;62.00
38854;DHT22;24606;51.992;4.198;2023-02-27T04:41:26;16.90;61.90
38854;DHT22;24606;51.992;4.198;2023-02-27T04:46:31;16.90;62.00
38854;DHT22;24606;51.992;4.198;2023-02-27T04:51:37;16.90;61.80
38854;DHT22;24606;51.992;4.198;2023-02-27T04:56:43;16.90;62.00
38854;DHT22;24606;51.992;4.198;2023-02-27T05:01:50;16.80;62.00
38854;DHT22;24606;51.992;4.198;2023-02-27T05:06:55;16.90;61.60
38854;DHT22;24606;51.992;4.198;2023-02-27T05:11:59;17.10;60.70
38854;DHT22;24606;51.992;4.198;2023-02-27T05:17:08;17.30;60.10
38854;DHT22;24606;51.992;4.198;2023-02-27T05:22:21;17.40;59.70
38854;DHT22;24606;51.992;4.198;2023-02-27T05:27:38;17.60;59.40
38854;DHT22;24606;51.992;4.198;2023-02-27T05:32:48;17.70;59.20
38854;DHT22;24606;51.992;4.198;2023-02-27T05:37:57;17.70;59.20
38854;DHT22;24606;51.992;4.198;2023-02-27T05:43:03;17.70;59.00
38854;DHT22;24606;51.992;4.198;2023-02-27T05:48:11;17.70;59.10
38854;DHT22;24606;51.992;4.198;2023-02-27T05:53:17;17.70;59.10
38854;DHT22;24606;51.992;4.198;2023-02-27T05:58:23;17.80;59.00
38854;DHT22;24606;51.992;4.198;2023-02-27T06:03:29;17.80;59.00
38854;DHT22;24606;51.992;4.198;2023-02-27T06:08:32;17.80;58.90
38854;DHT22;24606;51.992;4.198;2023-02-27T06:13:34;17.80;59.00
38854;DHT22;24606;51.992;4.198;2023-02-27T06:18:37;17.80;59.00
38854;DHT22;24606;51.992;4.198;2023-02-27T06:23:38;17.80;59.10
38854;DHT22;24606;51.992;4.198;2023-02-27T06:28:40;17.80;59.30
38854;DHT22;24606;51.992;4.198;2023-02-27T06:33:44;17.80;59.20
38854;DHT22;24606;51.992;4.198;2023-02-27T06:38:46;17.70;59.20
38854;DHT22;24606;51.992;4.198;2023-02-27T06:43:47;17.70;59.30
38854;DHT22;24606;51.992;4.198;2023-02-27T06:48:51;17.70;59.20
38854;DHT22;24606;51.992;4.198;2023-02-27T06:53:53;17.70;59.30
38854;DHT22;24606;51.992;4.198;2023-02-27T06:58:54;17.70;59.20
38854;DHT22;24606;51.992;4.198;2023-02-27T07:14:10;17.70;58.50
38854;DHT22;24606;51.992;4.198;2023-02-27T07:19:14;17.80;59.00
38854;DHT22;24606;51.992;4.198;2023-02-27T07:24:18;17.70;58.80
38854;DHT22;24606;51.992;4.198;2023-02-27T07:29:21;17.70;58.70
38854;DHT22;24606;51.992;4.198;2023-02-27T07:34:23;17.80;58.90
38854;DHT22;24606;51.992;4.198;2023-02-27T07:39:25;17.80;59.10
38854;DHT22;24606;51.992;4.198;2023-02-27T07:44:28;17.80;59.40
38854;DHT22;24606;51.992;4.198;2023-02-27T07:49:30;17.70;59.40
38854;DHT22;24606;51.992;4.198;2023-02-27T07:54:32;17.70;59.50
38854;DHT22;24606;51.992;4.198;2023-02-27T07:59:35;17.60;59.60
38854;DHT22;24606;51.992;4.198;2023-02-27T08:04:37;17.60;59.70
38854;DHT22;24606;51.992;4.198;2023-02-27T08:09:39;17.50;59.90
38854;DHT22;24606;51.992;4.198;2023-02-27T08:14:42;17.50;60.00
38854;DHT22;24606;51.992;4.198;2023-02-27T08:19:44;17.40;60.10
38854;DHT22;24606;51.992;4.198;2023-02-27T08:24:46;17.40;60.10
38854;DHT22;24606;51.992;4.198;2023-02-27T08:29:49;17.40;60.00
38854;DHT22;24606;51.992;4.198;2023-02-27T08:34:51;17.30;60.20
38854;DHT22;24606;51.992;4.198;2023-02-27T08:39:53;17.30;60.20
38854;DHT22;24606;51.992;4.198;2023-02-27T08:44:56;17.30;60.40
38854;DHT22;24606;51.992;4.198;2023-02-27T08:49:58;17.30;60.40
38854;DHT22;24606;51.992;4.198;2023-02-27T08:55:00;17.20;60.40
38854;DHT22;24606;51.992;4.198;2023-02-27T09:00:04;17.20;60.30
38854;DHT22;24606;51.992;4.198;2023-02-27T09:05:07;17.30;60.10
38854;DHT22;24606;51.992;4.198;2023-02-27T09:10:10;17.20;60.70
38854;DHT22;24606;51.992;4.198;2023-02-27T09:15:14;17.30;59.90
38854;DHT22;24606;51.992;4.198;2023-02-27T09:20:16;17.30;60.00
38854;DHT22;24606;51.992;4.198;2023-02-27T09:25:18;17.30;59.80
38854;DHT22;24606;51.992;4.198;2023-02-27T09:30:22;17.30;59.50
38854;DHT22;24606;51.992;4.198;2023-02-27T09:35:24;17.30;59.40
38854;DHT22;24606;51.992;4.198;2023-02-27T09:40:28;17.30;59.40
38854;DHT22;24606;51.992;4.198;2023-02-27T09:45:32;17.30;59.10
38854;DHT22;24606;51.992;4.198;2023-02-27T09:50:40;17.30;59.50
38854;DHT22;24606;51.992;4.198;2023-02-27T09:55:45;17.30;59.10
38854;DHT22;24606;51.992;4.198;2023-02-27T10:00:52;17.40;58.60
38854;DHT22;24606;51.992;4.198;2023-02-27T10:06:08;17.50;58.30
38854;DHT22;24606;51.992;4.198;2023-02-27T10:11:29;17.40;58.60
38854;DHT22;24606;51.992;4.198;2023-02-27T10:16:39;17.50;58.30
38854;DHT22;24606;51.992;4.198;2023-02-27T10:21:54;17.50;58.30
38854;DHT22;24606;51.992;4.198;2023-02-27T10:27:00;17.30;58.90
38854;DHT22;24606;51.992;4.198;2023-02-27T10:32:15;17.40;57.20
38854;DHT22;24606;51.992;4.198;2023-02-27T10:37:23;17.40;58.90
38854;DHT22;24606;51.992;4.198;2023-02-27T10:42:30;17.50;58.30
38854;DHT22;24606;51.992;4.198;2023-02-27T10:47:35;17.50;58.10
38854;DHT22;24606;51.992;4.198;2023-02-27T10:52:48;17.40;58.50
38854;DHT22;24606;51.992;4.198;2023-02-27T10:57:50;17.50;57.80
38854;DHT22;24606;51.992;4.198;2023-02-27T11:02:57;17.40;58.20
38854;DHT22;24606;51.992;4.198;2023-02-27T11:08:11;17.40;58.50
38854;DHT22;24606;51.992;4.198;2023-02-27T11:13:18;17.40;58.30
38854;DHT22;24606;51.992;4.198;2023-02-27T11:18:26;17.50;58.20
38854;DHT22;24606;51.992;4.198;2023-02-27T11:23:29;17.20;59.00
38854;DHT22;24606;51.992;4.198;2023-02-27T11:28:33;17.20;58.50
38854;DHT22;24606;51.992;4.198;2023-02-27T11:33:38;17.30;58.80
38854;DHT22;24606;51.992;4.198;2023-02-27T11:38:49;17.60;58.00
38854;DHT22;24606;51.992;4.198;2023-02-27T11:43:52;17.50;58.30
38854;DHT22;24606;51.992;4.198;2023-02-27T11:49:04;17.40;58.20
38854;DHT22;24606;51.992;4.198;2023-02-27T11:54:17;17.40;58.00
38854;DHT22;24606;51.992;4.198;2023-02-27T11:59:34;17.60;57.90
38854;DHT22;24606;51.992;4.198;2023-02-27T12:04:46;17.60;57.80
38854;DHT22;24606;51.992;4.198;2023-02-27T12:09:57;17.60;56.30
38854;DHT22;24606;51.992;4.198;2023-02-27T12:15:05;17.50;58.00
38854;DHT22;24606;51.992;4.198;2023-02-27T12:20:29;17.60;58.20
38854;DHT22;24606;51.992;4.198;2023-02-27T12:25:37;17.80;58.30
38854;DHT22;24606;51.992;4.198;2023-02-27T12:30:44;17.80;58.40
38854;DHT22;24606;51.992;4.198;2023-02-27T12:35:54;17.70;58.30
38854;DHT22;24606;51.992;4.198;2023-02-27T12:41:10;17.60;58.40
38854;DHT22;24606;51.992;4.198;2023-02-27T12:46:32;17.70;55.80
38854;DHT22;24606;51.992;4.198;2023-02-27T12:51:43;17.50;59.00
38854;DHT22;24606;51.992;4.198;2023-02-27T12:56:59;17.80;57.40
38854;DHT22;24606;51.992;4.198;2023-02-27T13:02:21;17.70;57.80
38854;DHT22;24606;51.992;4.198;2023-02-27T13:07:30;17.80;57.90
38854;DHT22;24606;51.992;4.198;2023-02-27T13:12:40;17.80;55.20
38854;DHT22;24606;51.992;4.198;2023-02-27T13:17:46;17.60;57.70
38854;DHT22;24606;51.992;4.198;2023-02-27T13:22:52;17.80;57.10
38854;DHT22;24606;51.992;4.198;2023-02-27T13:27:59;17.90;55.30
38854;DHT22;24606;51.992;4.198;2023-02-27T13:33:17;17.80;58.00
38854;DHT22;24606;51.992;4.198;2023-02-27T13:38:40;17.80;57.30
38854;DHT22;24606;51.992;4.198;2023-02-27T13:43:43;17.80;58.10
38854;DHT22;24606;51.992;4.198;2023-02-27T13:48:46;17.80;58.70
38854;DHT22;24606;51.992;4.198;2023-02-27T13:54:06;17.90;57.20
38854;DHT22;24606;51.992;4.198;2023-02-27T13:59:17;18.20;55.80
38854;DHT22;24606;51.992;4.198;2023-02-27T14:04:20;18.20;56.40
38854;DHT22;24606;51.992;4.198;2023-02-27T14:09:31;18.50;55.90
38854;DHT22;24606;51.992;4.198;2023-02-27T14:14:41;18.50;55.10
38854;DHT22;24606;51.992;4.198;2023-02-27T14:19:50;19.00;54.90
38854;DHT22;24606;51.992;4.198;2023-02-27T14:24:59;19.10;55.40
38854;DHT22;24606;51.992;4.198;2023-02-27T14:30:06;19.30;54.70
38854;DHT22;24606;51.992;4.198;2023-02-27T14:35:22;19.40;54.60
38854;DHT22;24606;51.992;4.198;2023-02-27T14:40:29;19.50;54.00
38854;DHT22;24606;51.992;4.198;2023-02-27T14:45:34;19.70;54.20
38854;DHT22;24606;51.992;4.198;2023-02-27T14:50:39;19.70;54.20
38854;DHT22;24606;51.992;4.198;2023-02-27T14:55:52;19.90;54.10
38854;DHT22;24606;51.992;4.198;2023-02-27T15:01:01;19.90;53.80
38854;DHT22;24606;51.992;4.198;2023-02-27T15:06:15;20.10;53.70
38854;DHT22;24606;51.992;4.198;2023-02-27T15:11:20;20.20;53.60
38854;DHT22;24606;51.992;4.198;2023-02-27T15:16:35;20.20;53.60
38854;DHT22;24606;51.992;4.198;2023-02-27T15:21:40;20.30;53.80
38854;DHT22;24606;51.992;4.198;2023-02-27T15:26:45;20.20;53.50
38854;DHT22;24606;51.992;4.198;2023-02-27T15:31:48;20.40;52.90
38854;DHT22;24606;51.992;4.198;2023-02-27T15:36:53;20.40;53.00
38854;DHT22;24606;51.992;4.198;2023-02-27T15:42:00;20.40;53.20
38854;DHT22;24606;51.992;4.198;2023-02-27T15:47:04;20.50;52.90
38854;DHT22;24606;51.992;4.198;2023-02-27T15:52:12;20.30;53.80
38854;DHT22;24606;51.992;4.198;2023-02-27T15:57:18;20.40;52.70
38854;DHT22;24606;51.992;4.198;2023-02-27T16:02:22;20.40;52.80
38854;DHT22;24606;51.992;4.198;2023-02-27T16:07:25;20.50;52.60
38854;DHT22;24606;51.992;4.198;2023-02-27T16:12:32;20.50;52.60
38854;DHT22;24606;51.992;4.198;2023-02-27T16:17:34;20.60;52.50
38854;DHT22;24606;51.992;4.198;2023-02-27T16:22:36;20.50;52.60
38854;DHT22;24606;51.992;4.198;2023-02-27T16:27:46;20.50;52.70
38854;DHT22;24606;51.992;4.198;2023-02-27T16:32:55;20.50;52.60
38854;DHT22;24606;51.992;4.198;2023-02-27T16:37:59;20.40;52.40
38854;DHT22;24606;51.992;4.198;2023-02-27T16:43:03;20.50;52.60
38854;DHT22;24606;51.992;4.198;2023-02-27T16:48:05;20.50;53.20
38854;DHT22;24606;51.992;4.198;2023-02-27T16:53:07;20.30;53.20
38854;DHT22;24606;51.992;4.198;2023-02-27T16:58:12;20.20;54.20
38854;DHT22;24606;51.992;4.198;2023-02-27T17:03:15;20.00;54.30
38854;DHT22;24606;51.992;4.198;2023-02-27T17:08:17;20.30;53.40
38854;DHT22;24606;51.992;4.198;2023-02-27T17:13:23;20.40;53.80
38854;DHT22;24606;51.992;4.198;2023-02-27T17:18:25;20.50;53.80
38854;DHT22;24606;51.992;4.198;2023-02-27T17:23:27;20.50;53.90
38854;DHT22;24606;51.992;4.198;2023-02-27T17:28:30;20.30;53.60
38854;DHT22;24606;51.992;4.198;2023-02-27T17:33:32;20.40;54.10
38854;DHT22;24606;51.992;4.198;2023-02-27T17:38:34;20.40;54.40
38854;DHT22;24606;51.992;4.198;2023-02-27T17:43:38;20.30;54.40
38854;DHT22;24606;51.992;4.198;2023-02-27T17:48:40;20.30;54.40
38854;DHT22;24606;51.992;4.198;2023-02-27T17:53:43;20.30;54.50
38854;DHT22;24606;51.992;4.198;2023-02-27T17:58:46;20.30;54.60
38854;DHT22;24606;51.992;4.198;2023-02-27T18:03:48;20.10;55.00
38854;DHT22;24606;51.992;4.198;2023-02-27T18:08:50;19.90;56.40
38854;DHT22;24606;51.992;4.198;2023-02-27T18:13:54;19.80;56.30
38854;DHT22;24606;51.992;4.198;2023-02-27T18:18:55;19.70;56.60
38854;DHT22;24606;51.992;4.198;2023-02-27T18:23:57;19.60;57.00
38854;DHT22;24606;51.992;4.198;2023-02-27T18:29:03;19.40;57.50
38854;DHT22;24606;51.992;4.198;2023-02-27T18:34:06;19.30;57.50
38854;DHT22;24606;51.992;4.198;2023-02-27T18:39:09;19.30;57.40
38854;DHT22;24606;51.992;4.198;2023-02-27T18:44:12;19.30;57.50
38854;DHT22;24606;51.992;4.198;2023-02-27T18:49:14;19.30;57.70
38854;DHT22;24606;51.992;4.198;2023-02-27T18:54:16;19.20;57.80
38854;DHT22;24606;51.992;4.198;2023-02-27T18:59:19;19.20;57.60
38854;DHT22;24606;51.992;4.198;2023-02-27T19:04:21;19.20;57.70
38854;DHT22;24606;51.992;4.198;2023-02-27T19:09:25;19.20;58.00
38854;DHT22;24606;51.992;4.198;2023-02-27T19:14:33;19.10;57.70
38854;DHT22;24606;51.992;4.198;2023-02-27T19:19:35;19.20;57.70
38854;DHT22;24606;51.992;4.198;2023-02-27T19:24:37;19.20;57.70
38854;DHT22;24606;51.992;4.198;2023-02-27T19:29:40;19.60;57.00
38854;DHT22;24606;51.992;4.198;2023-02-27T19:34:42;19.70;56.70
38854;DHT22;24606;51.992;4.198;2023-02-27T19:39:44;19.70;56.60
38854;DHT22;24606;51.992;4.198;2023-02-27T19:44:47;19.80;56.50
38854;DHT22;24606;51.992;4.198;2023-02-27T19:49:49;19.80;56.40
38854;DHT22;24606;51.992;4.198;2023-02-27T19:54:51;19.80;56.50
38854;DHT22;24606;51.992;4.198;2023-02-27T19:59:55;19.60;56.80
38854;DHT22;24606;51.992;4.198;2023-02-27T20:04:57;19.40;57.00
38854;DHT22;24606;51.992;4.198;2023-02-27T20:09:59;19.30;57.60
38854;DHT22;24606;51.992;4.198;2023-02-27T20:15:03;19.40;57.90
38854;DHT22;24606;51.992;4.198;2023-02-27T20:20:10;19.50;57.30
38854;DHT22;24606;51.992;4.198;2023-02-27T20:25:12;19.60;57.10
38854;DHT22;24606;51.992;4.198;2023-02-27T20:30:15;19.60;57.10
38854;DHT22;24606;51.992;4.198;2023-02-27T20:35:17;19.00;57.90
38854;DHT22;24606;51.992;4.198;2023-02-27T20:40:19;18.80;58.20
38854;DHT22;24606;51.992;4.198;2023-02-27T20:45:23;18.70;58.30
38854;DHT22;24606;51.992;4.198;2023-02-27T20:50:24;18.90;58.70
38854;DHT22;24606;51.992;4.198;2023-02-27T20:55:26;19.10;58.30
38854;DHT22;24606;51.992;4.198;2023-02-27T21:00:29;19.30;57.60
38854;DHT22;24606;51.992;4.198;2023-02-27T21:05:31;19.60;56.90
38854;DHT22;24606;51.992;4.198;2023-02-27T21:10:37;19.40;57.20
38854;DHT22;24606;51.992;4.198;2023-02-27T21:15:41;19.40;57.40
38854;DHT22;24606;51.992;4.198;2023-02-27T21:20:44;19.40;57.30
38854;DHT22;24606;51.992;4.198;2023-02-27T21:25:46;19.40;57.40
38854;DHT22;24606;51.992;4.198;2023-02-27T21:30:49;19.40;57.60
38854;DHT22;24606;51.992;4.198;2023-02-27T21:35:53;19.40;57.70
38854;DHT22;24606;51.992;4.198;2023-02-27T21:40:55;19.40;57.70
38854;DHT22;24606;51.992;4.198;2023-02-27T21:46:04;19.30;57.90
38854;DHT22;24606;51.992;4.198;2023-02-27T21:51:06;19.20;58.00
38854;DHT22;24606;51.992;4.198;2023-02-27T21:56:09;19.20;58.10
38854;DHT22;24606;51.992;4.198;2023-02-27T22:01:14;19.20;58.10
38854;DHT22;24606;51.992;4.198;2023-02-27T22:06:18;19.10;58.20
38854;DHT22;24606;51.992;4.198;2023-02-27T22:11:20;19.10;58.10
38854;DHT22;24606;51.992;4.198;2023-02-27T22:16:24;19.00;58.20
38854;DHT22;24606;51.992;4.198;2023-02-27T22:21:26;19.00;58.10
38854;DHT22;24606;51.992;4.198;2023-02-27T22:26:28;18.90;58.20
38854;DHT22;24606;51.992;4.198;2023-02-27T22:31:33;18.80;58.10
38854;DHT22;24606;51.992;4.198;2023-02-27T22:36:35;18.80;58.20
38854;DHT22;24606;51.992;4.198;2023-02-27T22:41:39;18.70;58.30
38854;DHT22;24606;51.992;4.198;2023-02-27T22:46:44;18.70;58.20
38854;DHT22;24606;51.992;4.198;2023-02-27T22:51:47;18.70;58.10
38854;DHT22;24606;51.992;4.198;2023-02-27T22:56:50;18.60;58.20
38854;DHT22;24606;51.992;4.198;2023-02-27T23:01:54;18.60;58.10
38854;DHT22;24606;51.992;4.198;2023-02-27T23:06:55;18.70;58.00
38854;DHT22;24606;51.992;4.198;2023-02-27T23:11:57;18.50;58.10
38854;DHT22;24606;51.992;4.198;2023-02-27T23:17:03;18.50;58.30
38854;DHT22;24606;51.992;4.198;2023-02-27T23:22:04;18.50;58.20
38854;DHT22;24606;51.992;4.198;2023-02-27T23:27:06;18.50;58.00
38854;DHT22;24606;51.992;4.198;2023-02-27T23:32:13;18.50;58.00
38854;DHT22;24606;51.992;4.198;2023-02-27T23:37:14;18.50;58.20
38854;DHT22;24606;51.992;4.198;2023-02-27T23:42:16;18.40;57.90
38854;DHT22;24606;51.992;4.198;2023-02-27T23:47:19;18.40;58.00
38854;DHT22;24606;51.992;4.198;2023-02-27T23:52:39;18.40;58.00
38854;DHT22;24606;51.992;4.198;2023-02-27T23:57:41;18.30;57.90
